sensor_id;sensor_type;location;lat;lon;timestamp;pressure;altitude;pressure_sealevel;temperature;humidity
59104;BME280;51449;51.676;5.812;2023-05-10T00:01:26;100761.91;;;14.66;87.67
59104;BME280;51449;51.676;5.812;2023-05-10T00:03:48;100761.53;;;14.67;87.99
59104;BME280;51449;51.676;5.812;2023-05-10T00:06:10;100760.38;;;14.68;87.80
59104;BME280;51449;51.676;5.812;2023-05-10T00:08:33;100759.56;;;14.68;88.02
59104;BME280;51449;51.676;5.812;2023-05-10T00:10:55;100767.06;;;14.67;87.84
59104;BME280;51449;51.676;5.812;2023-05-10T00:13:16;100754.38;;;14.66;87.64
59104;BME280;51449;51.676;5.812;2023-05-10T00:15:38;100757.97;;;14.67;87.70
59104;BME280;51449;51.676;5.812;2023-05-10T00:18:00;100757.50;;;14.65;87.68
59104;BME280;51449;51.676;5.812;2023-05-10T00:20:22;100758.25;;;14.62;87.68
59104;BME280;51449;51.676;5.812;2023-05-10T00:22:44;100759.03;;;14.62;87.62
59104;BME280;51449;51.676;5.812;2023-05-10T00:25:06;100755.81;;;14.60;87.73
59104;BME280;51449;51.676;5.812;2023-05-10T00:27:28;100752.59;;;14.58;87.73
59104;BME280;51449;51.676;5.812;2023-05-10T00:29:50;100762.91;;;14.58;88.17
59104;BME280;51449;51.676;5.812;2023-05-10T00:32:12;100756.91;;;14.55;87.94
59104;BME280;51449;51.676;5.812;2023-05-10T00:34:35;100754.13;;;14.55;88.08
59104;BME280;51449;51.676;5.812;2023-05-10T00:36:57;100750.22;;;14.57;88.03
59104;BME280;51449;51.676;5.812;2023-05-10T00:39:19;100754.13;;;14.55;88.07
59104;BME280;51449;51.676;5.812;2023-05-10T00:41:41;100751.00;;;14.57;87.91
59104;BME280;51449;51.676;5.812;2023-05-10T00:44:03;100754.59;;;14.58;88.06
59104;BME280;51449;51.676;5.812;2023-05-10T00:46:25;100762.09;;;14.57;87.91
59104;BME280;51449;51.676;5.812;2023-05-10T00:48:48;100756.22;;;14.59;88.05
59104;BME280;51449;51.676;5.812;2023-05-10T00:51:12;100753.00;;;14.57;88.20
59104;BME280;51449;51.676;5.812;2023-05-10T00:53:35;100753.78;;;14.57;88.23
59104;BME280;51449;51.676;5.812;2023-05-10T00:55:56;100748.25;;;14.57;88.31
59104;BME280;51449;51.676;5.812;2023-05-10T00:58:18;100749.41;;;14.56;88.21
59104;BME280;51449;51.676;5.812;2023-05-10T01:00:42;100747.78;;;14.55;88.35
59104;BME280;51449;51.676;5.812;2023-05-10T01:03:06;100753.34;;;14.55;88.38
59104;BME280;51449;51.676;5.812;2023-05-10T01:05:28;100740.97;;;14.52;88.47
59104;BME280;51449;51.676;5.812;2023-05-10T01:07:51;100748.59;;;14.55;88.35
59104;BME280;51449;51.676;5.812;2023-05-10T01:10:13;100753.00;;;14.57;88.30
59104;BME280;51449;51.676;5.812;2023-05-10T01:12:38;100748.97;;;14.54;88.10
59104;BME280;51449;51.676;5.812;2023-05-10T01:15:03;100752.06;;;14.52;88.24
59104;BME280;51449;51.676;5.812;2023-05-10T01:17:26;100753.59;;;14.50;88.23
59104;BME280;51449;51.676;5.812;2023-05-10T01:19:50;100761.84;;;14.46;88.47
59104;BME280;51449;51.676;5.812;2023-05-10T01:28:42;100759.78;;;14.43;88.34
59104;BME280;51449;51.676;5.812;2023-05-10T01:34:20;100753.72;;;14.38;88.38
59104;BME280;51449;51.676;5.812;2023-05-10T01:36:53;100756.44;;;14.34;88.44
59104;BME280;51449;51.676;5.812;2023-05-10T01:39:45;100755.25;;;14.35;88.44
59104;BME280;51449;51.676;5.812;2023-05-10T01:42:16;100755.59;;;14.33;88.45
59104;BME280;51449;51.676;5.812;2023-05-10T01:45:00;100754.44;;;14.34;88.59
59104;BME280;51449;51.676;5.812;2023-05-10T01:47:37;100753.66;;;14.34;88.49
59104;BME280;51449;51.676;5.812;2023-05-10T01:50:06;100760.72;;;14.31;88.40
59104;BME280;51449;51.676;5.812;2023-05-10T01:52:41;100758.66;;;14.28;88.44
59104;BME280;51449;51.676;5.812;2023-05-10T01:55:09;100751.06;;;14.25;88.53
59104;BME280;51449;51.676;5.812;2023-05-10T01:57:36;100754.19;;;14.24;88.75
59104;BME280;51449;51.676;5.812;2023-05-10T02:00:04;100750.63;;;14.23;88.70
59104;BME280;51449;51.676;5.812;2023-05-10T02:02:39;100755.72;;;14.21;88.60
59104;BME280;51449;51.676;5.812;2023-05-10T02:05:05;100757.34;;;14.22;88.58
59104;BME280;51449;51.676;5.812;2023-05-10T02:07:29;100752.59;;;14.23;88.67
59104;BME280;51449;51.676;5.812;2023-05-10T02:09:52;100759.72;;;14.24;88.68
59104;BME280;51449;51.676;5.812;2023-05-10T02:12:16;100759.72;;;14.24;88.45
59104;BME280;51449;51.676;5.812;2023-05-10T02:14:41;100769.66;;;14.25;88.93
59104;BME280;51449;51.676;5.812;2023-05-10T02:17:05;100769.66;;;14.25;88.87
59104;BME280;51449;51.676;5.812;2023-05-10T02:19:32;100772.88;;;14.27;88.85
59104;BME280;51449;51.676;5.812;2023-05-10T02:21:55;100776.81;;;14.26;88.37
59104;BME280;51449;51.676;5.812;2023-05-10T02:24:19;100776.00;;;14.25;88.63
59104;BME280;51449;51.676;5.812;2023-05-10T02:26:44;100778.78;;;14.25;88.39
59104;BME280;51449;51.676;5.812;2023-05-10T02:29:09;100781.91;;;14.24;88.57
59104;BME280;51449;51.676;5.812;2023-05-10T02:31:34;100780.31;;;14.23;88.68
59104;BME280;51449;51.676;5.812;2023-05-10T02:33:59;100776.28;;;14.20;88.35
59104;BME280;51449;51.676;5.812;2023-05-10T02:36:22;100773.78;;;14.15;88.78
59104;BME280;51449;51.676;5.812;2023-05-10T02:38:46;100779.97;;;14.08;89.04
59104;BME280;51449;51.676;5.812;2023-05-10T02:41:11;100774.41;;;14.08;89.46
59104;BME280;51449;51.676;5.812;2023-05-10T02:43:35;100779.50;;;14.06;89.57
59104;BME280;51449;51.676;5.812;2023-05-10T02:46:01;100776.72;;;14.06;89.45
59104;BME280;51449;51.676;5.812;2023-05-10T02:48:24;100770.41;;;14.06;89.67
59104;BME280;51449;51.676;5.812;2023-05-10T02:50:46;100775.59;;;14.07;89.21
59104;BME280;51449;51.676;5.812;2023-05-10T02:53:21;100779.16;;;14.08;89.37
59104;BME280;51449;51.676;5.812;2023-05-10T02:55:50;100778.81;;;14.09;89.39
59104;BME280;51449;51.676;5.812;2023-05-10T02:58:14;100785.22;;;14.13;89.33
59104;BME280;51449;51.676;5.812;2023-05-10T03:00:36;100779.34;;;14.15;89.60
59104;BME280;51449;51.676;5.812;2023-05-10T03:02:58;100781.72;;;14.17;89.21
59104;BME280;51449;51.676;5.812;2023-05-10T03:05:22;100780.22;;;14.19;89.08
59104;BME280;51449;51.676;5.812;2023-05-10T03:07:45;100783.06;;;14.23;89.34
59104;BME280;51449;51.676;5.812;2023-05-10T03:10:08;100786.75;;;14.27;89.29
59104;BME280;51449;51.676;5.812;2023-05-10T03:15:35;100790.38;;;14.31;89.11
59104;BME280;51449;51.676;5.812;2023-05-10T03:18:13;100789.25;;;14.32;89.26
59104;BME280;51449;51.676;5.812;2023-05-10T03:20:47;100785.28;;;14.33;89.12
59104;BME280;51449;51.676;5.812;2023-05-10T03:25:42;100794.78;;;14.32;89.10
59104;BME280;51449;51.676;5.812;2023-05-10T03:28:05;100788.06;;;14.33;89.22
59104;BME280;51449;51.676;5.812;2023-05-10T03:30:29;100794.78;;;14.32;88.96
59104;BME280;51449;51.676;5.812;2023-05-10T03:32:51;100797.09;;;14.30;88.93
59104;BME280;51449;51.676;5.812;2023-05-10T03:35:13;100794.31;;;14.30;88.98
59104;BME280;51449;51.676;5.812;2023-05-10T03:37:35;100802.66;;;14.30;88.80
59104;BME280;51449;51.676;5.812;2023-05-10T03:39:57;100796.66;;;14.28;89.04
59104;BME280;51449;51.676;5.812;2023-05-10T03:42:19;100801.41;;;14.27;89.07
59104;BME280;51449;51.676;5.812;2023-05-10T03:44:41;100814.91;;;14.29;88.91
59104;BME280;51449;51.676;5.812;2023-05-10T03:47:03;100801.06;;;14.29;89.02
59104;BME280;51449;51.676;5.812;2023-05-10T03:49:25;100809.78;;;14.31;89.03
59104;BME280;51449;51.676;5.812;2023-05-10T03:51:46;100808.19;;;14.30;88.91
59104;BME280;51449;51.676;5.812;2023-05-10T03:54:11;100807.84;;;14.31;88.88
59104;BME280;51449;51.676;5.812;2023-05-10T03:56:33;100811.41;;;14.32;89.05
59104;BME280;51449;51.676;5.812;2023-05-10T03:58:54;100806.31;;;14.34;88.78
59104;BME280;51449;51.676;5.812;2023-05-10T04:01:17;100807.91;;;14.35;88.90
59104;BME280;51449;51.676;5.812;2023-05-10T04:03:38;100817.41;;;14.34;88.79
59104;BME280;51449;51.676;5.812;2023-05-10T04:06:01;100814.63;;;14.34;89.07
59104;BME280;51449;51.676;5.812;2023-05-10T04:08:23;100817.75;;;14.32;89.32
59104;BME280;51449;51.676;5.812;2023-05-10T04:10:45;100814.63;;;14.34;89.30
59104;BME280;51449;51.676;5.812;2023-05-10T04:13:06;100820.97;;;14.34;89.01
59104;BME280;51449;51.676;5.812;2023-05-10T04:15:28;100825.78;;;14.38;89.08
59104;BME280;51449;51.676;5.812;2023-05-10T04:17:50;100829.00;;;14.40;88.99
59104;BME280;51449;51.676;5.812;2023-05-10T04:20:12;100817.13;;;14.39;88.94
59104;BME280;51449;51.676;5.812;2023-05-10T04:22:35;100821.41;;;14.37;89.06
59104;BME280;51449;51.676;5.812;2023-05-10T04:24:57;100822.66;;;14.39;89.00
59104;BME280;51449;51.676;5.812;2023-05-10T04:27:18;100825.88;;;14.41;88.89
59104;BME280;51449;51.676;5.812;2023-05-10T04:29:40;100817.19;;;14.43;88.88
59104;BME280;51449;51.676;5.812;2023-05-10T04:32:02;100826.69;;;14.42;88.75
59104;BME280;51449;51.676;5.812;2023-05-10T04:34:24;100825.88;;;14.41;89.21
59104;BME280;51449;51.676;5.812;2023-05-10T04:36:46;100828.28;;;14.43;88.50
59104;BME280;51449;51.676;5.812;2023-05-10T04:39:08;100828.72;;;14.45;89.10
59104;BME280;51449;51.676;5.812;2023-05-10T04:41:31;100827.56;;;14.46;88.80
59104;BME280;51449;51.676;5.812;2023-05-10T04:43:53;100825.59;;;14.46;88.77
59104;BME280;51449;51.676;5.812;2023-05-10T04:46:14;100821.22;;;14.45;88.92
59104;BME280;51449;51.676;5.812;2023-05-10T04:48:36;100828.72;;;14.45;88.87
59104;BME280;51449;51.676;5.812;2023-05-10T04:50:58;100829.06;;;14.43;88.61
59104;BME280;51449;51.676;5.812;2023-05-10T04:53:20;100834.28;;;14.45;88.72
59104;BME280;51449;51.676;5.812;2023-05-10T04:55:42;100830.72;;;14.44;88.94
59104;BME280;51449;51.676;5.812;2023-05-10T04:58:03;100829.53;;;14.45;88.60
59104;BME280;51449;51.676;5.812;2023-05-10T05:00:25;100833.03;;;14.42;88.67
59104;BME280;51449;51.676;5.812;2023-05-10T05:02:47;100837.78;;;14.42;88.64
59104;BME280;51449;51.676;5.812;2023-05-10T05:05:09;100837.78;;;14.42;88.56
59104;BME280;51449;51.676;5.812;2023-05-10T05:07:31;100841.69;;;14.41;88.72
59104;BME280;51449;51.676;5.812;2023-05-10T05:09:53;100840.53;;;14.42;88.59
59104;BME280;51449;51.676;5.812;2023-05-10T05:12:15;100839.81;;;14.45;88.44
59104;BME280;51449;51.676;5.812;2023-05-10T05:14:36;100839.47;;;14.46;88.35
59104;BME280;51449;51.676;5.812;2023-05-10T05:16:58;100846.97;;;14.46;88.71
59104;BME280;51449;51.676;5.812;2023-05-10T05:19:20;100854.47;;;14.45;88.62
59104;BME280;51449;51.676;5.812;2023-05-10T05:21:42;100852.44;;;14.42;88.11
59104;BME280;51449;51.676;5.812;2023-05-10T05:24:04;100851.91;;;14.37;88.02
59104;BME280;51449;51.676;5.812;2023-05-10T05:26:26;100850.66;;;14.34;88.00
59104;BME280;51449;51.676;5.812;2023-05-10T05:28:48;100847.88;;;14.34;88.03
59104;BME280;51449;51.676;5.812;2023-05-10T05:31:11;100862.44;;;14.31;87.94
59104;BME280;51449;51.676;5.812;2023-05-10T05:33:33;100853.72;;;14.29;88.33
59104;BME280;51449;51.676;5.812;2023-05-10T05:35:55;100861.13;;;14.25;88.33
59104;BME280;51449;51.676;5.812;2023-05-10T05:38:17;100861.47;;;14.23;88.28
59104;BME280;51449;51.676;5.812;2023-05-10T05:40:39;100860.94;;;14.18;87.74
59104;BME280;51449;51.676;5.812;2023-05-10T05:43:00;100861.56;;;14.11;87.93
59104;BME280;51449;51.676;5.812;2023-05-10T05:45:22;100864.59;;;14.06;88.13
59104;BME280;51449;51.676;5.812;2023-05-10T05:47:44;100870.94;;;14.06;88.09
59104;BME280;51449;51.676;5.812;2023-05-10T05:50:06;100866.09;;;14.03;88.20
59104;BME280;51449;51.676;5.812;2023-05-10T05:52:28;100866.91;;;14.04;87.98
59104;BME280;51449;51.676;5.812;2023-05-10T05:54:50;100875.69;;;14.06;88.41
59104;BME280;51449;51.676;5.812;2023-05-10T05:57:12;100873.34;;;14.08;88.40
59104;BME280;51449;51.676;5.812;2023-05-10T05:59:33;100869.06;;;14.10;88.42
59104;BME280;51449;51.676;5.812;2023-05-10T06:01:55;100872.75;;;14.15;88.53
59104;BME280;51449;51.676;5.812;2023-05-10T06:04:17;100879.63;;;14.21;88.32
59104;BME280;51449;51.676;5.812;2023-05-10T06:06:39;100883.28;;;14.25;88.26
59104;BME280;51449;51.676;5.812;2023-05-10T06:09:00;100880.06;;;14.23;88.12
59104;BME280;51449;51.676;5.812;2023-05-10T06:11:22;100881.66;;;14.24;88.07
59104;BME280;51449;51.676;5.812;2023-05-10T06:13:44;100888.09;;;14.28;88.12
59104;BME280;51449;51.676;5.812;2023-05-10T06:16:06;100886.59;;;14.30;88.10
59104;BME280;51449;51.676;5.812;2023-05-10T06:18:28;100898.13;;;14.32;88.13
59104;BME280;51449;51.676;5.812;2023-05-10T06:20:49;100894.28;;;14.37;88.17
59104;BME280;51449;51.676;5.812;2023-05-10T06:23:11;100893.28;;;14.45;88.30
59104;BME280;51449;51.676;5.812;2023-05-10T06:25:33;100898.56;;;14.50;87.99
59104;BME280;51449;51.676;5.812;2023-05-10T06:27:55;100888.41;;;14.54;88.14
59104;BME280;51449;51.676;5.812;2023-05-10T06:30:19;100898.41;;;14.59;87.68
59104;BME280;51449;51.676;5.812;2023-05-10T06:32:41;100891.06;;;14.67;87.62
59104;BME280;51449;51.676;5.812;2023-05-10T06:35:05;100892.03;;;14.74;87.65
59104;BME280;51449;51.676;5.812;2023-05-10T06:37:28;100901.41;;;14.86;87.38
59104;BME280;51449;51.676;5.812;2023-05-10T06:39:49;100898.38;;;14.91;87.05
59104;BME280;51449;51.676;5.812;2023-05-10T06:42:11;100901.94;;;14.91;86.83
59104;BME280;51449;51.676;5.812;2023-05-10T06:44:33;100898.00;;;14.92;86.67
59104;BME280;51449;51.676;5.812;2023-05-10T06:46:55;100899.91;;;14.88;85.66
59104;BME280;51449;51.676;5.812;2023-05-10T06:49:18;100900.88;;;14.80;85.03
59104;BME280;51449;51.676;5.812;2023-05-10T06:51:40;100907.16;;;14.77;85.05
59104;BME280;51449;51.676;5.812;2023-05-10T06:54:02;100906.69;;;14.75;84.87
59104;BME280;51449;51.676;5.812;2023-05-10T06:56:24;100913.78;;;14.72;85.00
59104;BME280;51449;51.676;5.812;2023-05-10T06:58:46;100920.56;;;14.75;84.76
59104;BME280;51449;51.676;5.812;2023-05-10T07:01:08;100932.13;;;14.77;85.04
59104;BME280;51449;51.676;5.812;2023-05-10T07:03:30;100927.00;;;14.79;84.83
59104;BME280;51449;51.676;5.812;2023-05-10T07:05:53;100927.47;;;14.81;85.07
59104;BME280;51449;51.676;5.812;2023-05-10T07:08:14;100927.13;;;14.83;85.12
59104;BME280;51449;51.676;5.812;2023-05-10T07:10:36;100931.13;;;14.85;85.04
59104;BME280;51449;51.676;5.812;2023-05-10T07:12:58;100929.50;;;14.84;84.84
59104;BME280;51449;51.676;5.812;2023-05-10T07:15:20;100935.00;;;14.81;84.37
59104;BME280;51449;51.676;5.812;2023-05-10T07:17:42;100936.59;;;14.82;84.74
59104;BME280;51449;51.676;5.812;2023-05-10T07:20:07;100930.69;;;14.83;84.17
59104;BME280;51449;51.676;5.812;2023-05-10T07:22:29;100946.59;;;14.86;84.36
59104;BME280;51449;51.676;5.812;2023-05-10T07:24:51;100932.66;;;14.83;83.93
59104;BME280;51449;51.676;5.812;2023-05-10T07:27:13;100942.47;;;14.80;83.57
59104;BME280;51449;51.676;5.812;2023-05-10T07:29:35;100943.31;;;14.81;83.85
59104;BME280;51449;51.676;5.812;2023-05-10T07:31:57;100950.44;;;14.82;84.07
59104;BME280;51449;51.676;5.812;2023-05-10T07:34:19;100952.88;;;14.83;83.99
59104;BME280;51449;51.676;5.812;2023-05-10T07:36:41;100945.81;;;14.86;83.98
59104;BME280;51449;51.676;5.812;2023-05-10T07:39:03;100954.19;;;14.89;84.13
59104;BME280;51449;51.676;5.812;2023-05-10T07:41:25;100949.09;;;14.91;84.35
59104;BME280;51449;51.676;5.812;2023-05-10T07:43:47;100946.84;;;14.97;84.38
59104;BME280;51449;51.676;5.812;2023-05-10T07:46:09;100958.03;;;15.01;84.41
59104;BME280;51449;51.676;5.812;2023-05-10T07:48:31;100947.28;;;14.99;84.28
59104;BME280;51449;51.676;5.812;2023-05-10T07:50:53;100956.41;;;14.99;84.22
59104;BME280;51449;51.676;5.812;2023-05-10T07:53:15;100948.53;;;15.02;84.39
59104;BME280;51449;51.676;5.812;2023-05-10T07:55:37;100955.72;;;15.03;84.24
59104;BME280;51449;51.676;5.812;2023-05-10T07:57:59;100957.25;;;15.00;84.12
59104;BME280;51449;51.676;5.812;2023-05-10T08:00:22;100957.59;;;14.98;84.13
59104;BME280;51449;51.676;5.812;2023-05-10T08:02:44;100958.84;;;15.01;84.08
59104;BME280;51449;51.676;5.812;2023-05-10T08:05:06;100962.97;;;15.07;84.09
59104;BME280;51449;51.676;5.812;2023-05-10T08:07:28;100961.88;;;15.12;83.67
59104;BME280;51449;51.676;5.812;2023-05-10T08:09:51;100960.78;;;15.16;83.43
59104;BME280;51449;51.676;5.812;2023-05-10T08:12:13;100960.78;;;15.16;82.96
59104;BME280;51449;51.676;5.812;2023-05-10T08:14:35;100967.84;;;15.14;82.98
59104;BME280;51449;51.676;5.812;2023-05-10T08:16:58;100970.28;;;15.15;83.17
59104;BME280;51449;51.676;5.812;2023-05-10T08:19:19;100966.06;;;15.22;83.38
59104;BME280;51449;51.676;5.812;2023-05-10T08:21:42;100970.09;;;15.24;83.39
59104;BME280;51449;51.676;5.812;2023-05-10T08:24:04;100977.84;;;15.34;83.74
59104;BME280;51449;51.676;5.812;2023-05-10T08:26:27;100978.44;;;15.44;83.75
59104;BME280;51449;51.676;5.812;2023-05-10T08:28:49;100990.88;;;15.50;83.28
59104;BME280;51449;51.676;5.812;2023-05-10T08:31:11;100988.59;;;15.55;83.29
59104;BME280;51449;51.676;5.812;2023-05-10T08:33:33;100992.63;;;15.58;82.53
59104;BME280;51449;51.676;5.812;2023-05-10T08:35:55;100995.13;;;15.63;82.48
59104;BME280;51449;51.676;5.812;2023-05-10T08:38:17;100986.50;;;15.68;82.17
59104;BME280;51449;51.676;5.812;2023-05-10T08:40:42;100992.16;;;15.72;81.41
59104;BME280;51449;51.676;5.812;2023-05-10T08:43:06;100998.06;;;15.70;80.76
59104;BME280;51449;51.676;5.812;2023-05-10T08:45:32;100996.00;;;15.67;80.13
59104;BME280;51449;51.676;5.812;2023-05-10T08:48:00;100999.69;;;15.71;80.02
59104;BME280;51449;51.676;5.812;2023-05-10T08:50:25;100997.38;;;15.73;80.27
59104;BME280;51449;51.676;5.812;2023-05-10T08:52:48;101004.97;;;15.76;79.93
59104;BME280;51449;51.676;5.812;2023-05-10T08:55:15;101008.25;;;15.82;80.31
59104;BME280;51449;51.676;5.812;2023-05-10T08:57:38;101012.25;;;15.84;80.00
59104;BME280;51449;51.676;5.812;2023-05-10T09:00:01;101019.34;;;15.82;79.54
59104;BME280;51449;51.676;5.812;2023-05-10T09:02:23;101022.53;;;15.80;79.07
59104;BME280;51449;51.676;5.812;2023-05-10T09:04:47;101018.66;;;15.85;79.88
59104;BME280;51449;51.676;5.812;2023-05-10T09:07:11;101021.94;;;15.91;79.91
59104;BME280;51449;51.676;5.812;2023-05-10T09:09:33;101022.06;;;15.98;80.03
59104;BME280;51449;51.676;5.812;2023-05-10T09:11:57;101025.31;;;16.00;79.95
59104;BME280;51449;51.676;5.812;2023-05-10T09:14:19;101024.22;;;16.04;79.80
59104;BME280;51449;51.676;5.812;2023-05-10T09:16:42;101027.78;;;16.05;79.59
59104;BME280;51449;51.676;5.812;2023-05-10T09:19:05;101029.38;;;16.06;80.03
59104;BME280;51449;51.676;5.812;2023-05-10T09:21:30;101028.59;;;16.05;79.56
59104;BME280;51449;51.676;5.812;2023-05-10T09:23:53;101035.97;;;15.98;78.96
59104;BME280;51449;51.676;5.812;2023-05-10T09:26:17;101039.50;;;15.95;78.71
59104;BME280;51449;51.676;5.812;2023-05-10T09:31:14;101037.06;;;15.93;78.82
59104;BME280;51449;51.676;5.812;2023-05-10T09:33:46;101035.53;;;15.96;78.54
59104;BME280;51449;51.676;5.812;2023-05-10T09:36:09;101037.88;;;15.94;78.32
59104;BME280;51449;51.676;5.812;2023-05-10T09:38:47;101044.22;;;15.94;78.28
59104;BME280;51449;51.676;5.812;2023-05-10T09:41:27;101042.13;;;15.88;78.24
59104;BME280;51449;51.676;5.812;2023-05-10T09:43:50;101052.00;;;15.85;78.09
59104;BME280;51449;51.676;5.812;2023-05-10T09:46:17;101048.69;;;15.79;78.01
59104;BME280;51449;51.676;5.812;2023-05-10T09:48:46;101063.31;;;15.76;77.98
59104;BME280;51449;51.676;5.812;2023-05-10T09:51:09;101059.63;;;15.72;78.08
59104;BME280;51449;51.676;5.812;2023-05-10T09:53:31;101062.66;;;15.67;78.31
59104;BME280;51449;51.676;5.812;2023-05-10T09:55:53;101058.03;;;15.71;78.54
59104;BME280;51449;51.676;5.812;2023-05-10T09:58:15;101065.63;;;15.74;78.44
59104;BME280;51449;51.676;5.812;2023-05-10T10:00:45;101064.47;;;15.75;78.65
59104;BME280;51449;51.676;5.812;2023-05-10T10:03:15;101064.09;;;15.77;78.87
59104;BME280;51449;51.676;5.812;2023-05-10T10:05:42;101072.59;;;15.84;78.96
59104;BME280;51449;51.676;5.812;2023-05-10T10:08:05;101067.13;;;15.88;79.07
59104;BME280;51449;51.676;5.812;2023-05-10T10:10:28;101067.19;;;15.91;78.35
59104;BME280;51449;51.676;5.812;2023-05-10T10:12:51;101068.72;;;15.89;78.09
59104;BME280;51449;51.676;5.812;2023-05-10T10:15:14;101068.44;;;15.94;77.86
59104;BME280;51449;51.676;5.812;2023-05-10T10:17:37;101074.16;;;16.01;78.37
59104;BME280;51449;51.676;5.812;2023-05-10T10:20:02;101074.31;;;16.08;77.76
59104;BME280;51449;51.676;5.812;2023-05-10T10:22:26;101074.34;;;16.12;77.58
59104;BME280;51449;51.676;5.812;2023-05-10T10:24:48;101074.44;;;16.15;77.87
59104;BME280;51449;51.676;5.812;2023-05-10T10:36:01;101074.44;;;16.35;77.45
59104;BME280;51449;51.676;5.812;2023-05-10T10:38:25;101078.03;;;16.35;77.44
59104;BME280;51449;51.676;5.812;2023-05-10T10:41:10;101071.72;;;16.38;77.38
59104;BME280;51449;51.676;5.812;2023-05-10T10:43:48;101070.13;;;16.37;77.12
59104;BME280;51449;51.676;5.812;2023-05-10T10:46:14;101078.81;;;16.36;77.01
59104;BME280;51449;51.676;5.812;2023-05-10T10:48:49;101073.94;;;16.29;76.86
59104;BME280;51449;51.676;5.812;2023-05-10T10:51:29;101074.50;;;16.19;76.65
59104;BME280;51449;51.676;5.812;2023-05-10T10:53:53;101083.97;;;16.14;76.38
59104;BME280;51449;51.676;5.812;2023-05-10T10:56:15;101081.91;;;16.11;76.01
59104;BME280;51449;51.676;5.812;2023-05-10T10:58:49;101079.25;;;15.99;75.92
59104;BME280;51449;51.676;5.812;2023-05-10T11:01:17;101075.97;;;15.93;76.57
59104;BME280;51449;51.676;5.812;2023-05-10T11:03:40;101083.88;;;15.91;77.02
59104;BME280;51449;51.676;5.812;2023-05-10T11:06:03;101084.75;;;15.95;77.49
59104;BME280;51449;51.676;5.812;2023-05-10T11:08:29;101086.34;;;15.96;77.59
59104;BME280;51449;51.676;5.812;2023-05-10T11:11:01;101089.13;;;15.96;77.49
59104;BME280;51449;51.676;5.812;2023-05-10T11:13:43;101093.59;;;16.01;78.28
59104;BME280;51449;51.676;5.812;2023-05-10T11:16:20;101084.16;;;16.05;78.46
59104;BME280;51449;51.676;5.812;2023-05-10T11:19:07;101090.69;;;16.13;77.91
59104;BME280;51449;51.676;5.812;2023-05-10T11:21:31;101093.16;;;16.18;78.24
59104;BME280;51449;51.676;5.812;2023-05-10T11:23:57;101096.53;;;16.27;78.35
59104;BME280;51449;51.676;5.812;2023-05-10T11:26:20;101090.31;;;16.34;78.32
59104;BME280;51449;51.676;5.812;2023-05-10T11:28:45;101087.38;;;16.46;77.53
59104;BME280;51449;51.676;5.812;2023-05-10T11:31:09;101090.31;;;16.54;77.24
59104;BME280;51449;51.676;5.812;2023-05-10T11:33:42;101086.19;;;16.67;76.98
59104;BME280;51449;51.676;5.812;2023-05-10T11:36:23;101089.09;;;16.74;75.39
59104;BME280;51449;51.676;5.812;2023-05-10T11:38:47;101096.81;;;16.81;74.23
59104;BME280;51449;51.676;5.812;2023-05-10T11:41:10;101096.50;;;16.86;74.41
59104;BME280;51449;51.676;5.812;2023-05-10T11:43:33;101095.56;;;17.01;75.10
59104;BME280;51449;51.676;5.812;2023-05-10T11:45:56;101098.97;;;17.14;75.33
59104;BME280;51449;51.676;5.812;2023-05-10T11:48:19;101097.16;;;17.25;75.30
59104;BME280;51449;51.676;5.812;2023-05-10T11:50:43;101097.66;;;17.31;74.60
59104;BME280;51449;51.676;5.812;2023-05-10T11:53:06;101097.72;;;17.35;73.90
59104;BME280;51449;51.676;5.812;2023-05-10T11:55:27;101092.47;;;17.29;72.65
59104;BME280;51449;51.676;5.812;2023-05-10T11:57:53;101100.38;;;17.27;73.00
59104;BME280;51449;51.676;5.812;2023-05-10T12:00:15;101096.38;;;17.25;72.27
59104;BME280;51449;51.676;5.812;2023-05-10T12:02:38;101089.56;;;17.22;72.10
59104;BME280;51449;51.676;5.812;2023-05-10T12:05:02;101092.38;;;17.26;72.68
59104;BME280;51449;51.676;5.812;2023-05-10T12:07:26;101089.69;;;17.29;72.30
59104;BME280;51449;51.676;5.812;2023-05-10T12:10:09;101088.94;;;17.32;71.19
59104;BME280;51449;51.676;5.812;2023-05-10T12:12:41;101096.97;;;17.38;71.83
59104;BME280;51449;51.676;5.812;2023-05-10T12:15:05;101095.53;;;17.47;72.31
59104;BME280;51449;51.676;5.812;2023-05-10T12:17:32;101093.31;;;17.60;72.63
59104;BME280;51449;51.676;5.812;2023-05-10T12:19:53;101095.06;;;17.68;72.72
59104;BME280;51449;51.676;5.812;2023-05-10T12:22:20;101092.72;;;17.74;72.42
59104;BME280;51449;51.676;5.812;2023-05-10T12:24:45;101104.66;;;17.71;71.79
59104;BME280;51449;51.676;5.812;2023-05-10T12:27:10;101096.97;;;17.64;71.27
59104;BME280;51449;51.676;5.812;2023-05-10T12:29:33;101104.00;;;17.54;70.94
59104;BME280;51449;51.676;5.812;2023-05-10T12:31:57;101101.09;;;17.47;71.31
59104;BME280;51449;51.676;5.812;2023-05-10T12:34:30;101102.97;;;17.40;70.58
59104;BME280;51449;51.676;5.812;2023-05-10T12:36:58;101106.00;;;17.31;71.13
59104;BME280;51449;51.676;5.812;2023-05-10T12:39:20;101112.41;;;17.31;72.02
59104;BME280;51449;51.676;5.812;2023-05-10T12:41:42;101114.78;;;17.33;72.78
59104;BME280;51449;51.676;5.812;2023-05-10T12:44:04;101112.44;;;17.35;73.40
59104;BME280;51449;51.676;5.812;2023-05-10T12:46:26;101120.88;;;17.39;73.70
59104;BME280;51449;51.676;5.812;2023-05-10T12:48:49;101129.72;;;17.44;73.84
59104;BME280;51449;51.676;5.812;2023-05-10T12:51:29;101124.94;;;17.45;74.45
59104;BME280;51449;51.676;5.812;2023-05-10T12:53:52;101131.31;;;17.45;74.12
59104;BME280;51449;51.676;5.812;2023-05-10T12:56:14;101131.72;;;17.47;74.32
59104;BME280;51449;51.676;5.812;2023-05-10T12:58:36;101129.03;;;17.51;74.20
59104;BME280;51449;51.676;5.812;2023-05-10T13:01:00;101138.63;;;17.53;74.19